sensor_id;sensor_type;location;lat;lon;timestamp;P1;durP1;ratioP1;P2;durP2;ratioP2
78818;SDS011;68166;55.090;37.460;2023-07-08T00:01:28;11.90;;;5.32;;
78818;SDS011;68166;55.090;37.460;2023-07-08T00:06:30;12.23;;;6.15;;
78818;SDS011;68166;55.090;37.460;2023-07-08T00:11:32;10.20;;;4.88;;
78818;SDS011;68166;55.090;37.460;2023-07-08T00:16:34;10.60;;;5.63;;
78818;SDS011;68166;55.090;37.460;2023-07-08T00:21:36;8.23;;;4.78;;
78818;SDS011;68166;55.090;37.460;2023-07-08T00:26:38;11.27;;;5.70;;
78818;SDS011;68166;55.090;37.460;2023-07-08T00:31:40;8.73;;;5.60;;
78818;SDS011;68166;55.090;37.460;2023-07-08T00:36:42;9.30;;;4.72;;
78818;SDS011;68166;55.090;37.460;2023-07-08T00:41:44;9.80;;;5.15;;
78818;SDS011;68166;55.090;37.460;2023-07-08T00:47:02;8.93;;;4.82;;
78818;SDS011;68166;55.090;37.460;2023-07-08T00:52:22;8.77;;;4.90;;
78818;SDS011;68166;55.090;37.460;2023-07-08T00:57:26;10.88;;;5.05;;
78818;SDS011;68166;55.090;37.460;2023-07-08T01:02:31;9.90;;;4.93;;
78818;SDS011;68166;55.090;37.460;2023-07-08T01:07:36;11.38;;;5.97;;
78818;SDS011;68166;55.090;37.460;2023-07-08T01:12:43;10.82;;;4.97;;
78818;SDS011;68166;55.090;37.460;2023-07-08T01:17:48;8.98;;;5.28;;
78818;SDS011;68166;55.090;37.460;2023-07-08T01:22:54;15.85;;;6.20;;
78818;SDS011;68166;55.090;37.460;2023-07-08T01:27:56;9.80;;;5.10;;
78818;SDS011;68166;55.090;37.460;2023-07-08T01:33:04;9.95;;;5.97;;
78818;SDS011;68166;55.090;37.460;2023-07-08T01:38:08;12.10;;;6.63;;
78818;SDS011;68166;55.090;37.460;2023-07-08T01:43:11;11.60;;;5.75;;
78818;SDS011;68166;55.090;37.460;2023-07-08T01:48:14;14.75;;;6.18;;
78818;SDS011;68166;55.090;37.460;2023-07-08T01:53:43;13.43;;;6.18;;
78818;SDS011;68166;55.090;37.460;2023-07-08T01:58:43;11.13;;;5.22;;
78818;SDS011;68166;55.090;37.460;2023-07-08T02:03:45;8.35;;;4.93;;
78818;SDS011;68166;55.090;37.460;2023-07-08T02:08:47;9.63;;;5.03;;
78818;SDS011;68166;55.090;37.460;2023-07-08T02:13:51;11.20;;;5.70;;
78818;SDS011;68166;55.090;37.460;2023-07-08T02:18:53;10.13;;;5.75;;
78818;SDS011;68166;55.090;37.460;2023-07-08T02:23:55;13.07;;;6.18;;
78818;SDS011;68166;55.090;37.460;2023-07-08T02:28:56;12.90;;;7.13;;
78818;SDS011;68166;55.090;37.460;2023-07-08T02:33:59;13.32;;;6.53;;
78818;SDS011;68166;55.090;37.460;2023-07-08T02:39:03;13.93;;;6.30;;
78818;SDS011;68166;55.090;37.460;2023-07-08T02:44:05;11.65;;;5.63;;
78818;SDS011;68166;55.090;37.460;2023-07-08T02:49:07;13.63;;;5.68;;
78818;SDS011;68166;55.090;37.460;2023-07-08T02:54:09;13.77;;;6.60;;
78818;SDS011;68166;55.090;37.460;2023-07-08T02:59:14;12.13;;;6.40;;
78818;SDS011;68166;55.090;37.460;2023-07-08T03:04:16;12.35;;;5.90;;
78818;SDS011;68166;55.090;37.460;2023-07-08T03:09:19;14.07;;;6.65;;
78818;SDS011;68166;55.090;37.460;2023-07-08T03:14:21;13.48;;;6.82;;
78818;SDS011;68166;55.090;37.460;2023-07-08T03:19:23;10.15;;;5.70;;
78818;SDS011;68166;55.090;37.460;2023-07-08T03:24:26;12.48;;;5.95;;
78818;SDS011;68166;55.090;37.460;2023-07-08T03:29:30;10.15;;;5.60;;
78818;SDS011;68166;55.090;37.460;2023-07-08T03:34:33;13.13;;;6.07;;
78818;SDS011;68166;55.090;37.460;2023-07-08T03:39:35;10.32;;;5.80;;
78818;SDS011;68166;55.090;37.460;2023-07-08T03:44:37;10.60;;;5.72;;
78818;SDS011;68166;55.090;37.460;2023-07-08T03:49:39;15.38;;;6.53;;
78818;SDS011;68166;55.090;37.460;2023-07-08T03:54:41;12.70;;;6.82;;
78818;SDS011;68166;55.090;37.460;2023-07-08T03:59:43;10.85;;;5.72;;
78818;SDS011;68166;55.090;37.460;2023-07-08T04:04:47;11.50;;;5.53;;
78818;SDS011;68166;55.090;37.460;2023-07-08T04:09:51;14.43;;;5.55;;
78818;SDS011;68166;55.090;37.460;2023-07-08T04:14:53;13.68;;;7.20;;
78818;SDS011;68166;55.090;37.460;2023-07-08T04:19:55;14.38;;;6.25;;
78818;SDS011;68166;55.090;37.460;2023-07-08T04:25:07;12.98;;;6.20;;
78818;SDS011;68166;55.090;37.460;2023-07-08T04:30:14;11.68;;;6.43;;
78818;SDS011;68166;55.090;37.460;2023-07-08T04:40:23;11.57;;;6.00;;
78818;SDS011;68166;55.090;37.460;2023-07-08T04:45:25;11.77;;;6.60;;
78818;SDS011;68166;55.090;37.460;2023-07-08T04:50:27;14.90;;;7.07;;
78818;SDS011;68166;55.090;37.460;2023-07-08T04:55:29;12.00;;;6.68;;
78818;SDS011;68166;55.090;37.460;2023-07-08T05:00:30;13.88;;;6.28;;
78818;SDS011;68166;55.090;37.460;2023-07-08T05:05:33;14.63;;;7.82;;
78818;SDS011;68166;55.090;37.460;2023-07-08T05:10:35;13.15;;;7.32;;
78818;SDS011;68166;55.090;37.460;2023-07-08T05:15:37;12.57;;;6.60;;
78818;SDS011;68166;55.090;37.460;2023-07-08T05:20:39;13.40;;;6.80;;
78818;SDS011;68166;55.090;37.460;2023-07-08T05:25:41;12.38;;;6.25;;
78818;SDS011;68166;55.090;37.460;2023-07-08T05:30:43;13.07;;;6.95;;
78818;SDS011;68166;55.090;37.460;2023-07-08T05:35:45;13.43;;;6.38;;
78818;SDS011;68166;55.090;37.460;2023-07-08T05:40:50;12.10;;;6.50;;
78818;SDS011;68166;55.090;37.460;2023-07-08T05:45:58;9.98;;;5.65;;
78818;SDS011;68166;55.090;37.460;2023-07-08T05:51:00;15.38;;;6.35;;
78818;SDS011;68166;55.090;37.460;2023-07-08T05:56:02;11.52;;;5.65;;
78818;SDS011;68166;55.090;37.460;2023-07-08T06:01:05;11.52;;;6.60;;
78818;SDS011;68166;55.090;37.460;2023-07-08T06:06:07;10.13;;;5.00;;
78818;SDS011;68166;55.090;37.460;2023-07-08T06:11:10;12.30;;;6.35;;
78818;SDS011;68166;55.090;37.460;2023-07-08T06:16:12;12.63;;;5.63;;
78818;SDS011;68166;55.090;37.460;2023-07-08T06:21:14;11.45;;;6.43;;
78818;SDS011;68166;55.090;37.460;2023-07-08T06:26:15;12.27;;;5.80;;
78818;SDS011;68166;55.090;37.460;2023-07-08T06:31:17;11.10;;;6.15;;
78818;SDS011;68166;55.090;37.460;2023-07-08T06:36:19;12.65;;;5.90;;
78818;SDS011;68166;55.090;37.460;2023-07-08T06:41:21;11.38;;;6.28;;
78818;SDS011;68166;55.090;37.460;2023-07-08T06:46:23;9.88;;;6.05;;
78818;SDS011;68166;55.090;37.460;2023-07-08T06:51:25;12.82;;;5.20;;
78818;SDS011;68166;55.090;37.460;2023-07-08T06:56:28;11.20;;;5.78;;
78818;SDS011;68166;55.090;37.460;2023-07-08T07:01:30;9.82;;;5.47;;
78818;SDS011;68166;55.090;37.460;2023-07-08T07:06:32;11.27;;;5.72;;
78818;SDS011;68166;55.090;37.460;2023-07-08T07:11:34;9.32;;;5.70;;
78818;SDS011;68166;55.090;37.460;2023-07-08T07:16:36;8.50;;;4.85;;
78818;SDS011;68166;55.090;37.460;2023-07-08T07:21:38;11.40;;;5.85;;
78818;SDS011;68166;55.090;37.460;2023-07-08T07:26:40;10.20;;;5.05;;
78818;SDS011;68166;55.090;37.460;2023-07-08T07:31:42;9.30;;;5.03;;
78818;SDS011;68166;55.090;37.460;2023-07-08T07:36:44;8.90;;;4.85;;
78818;SDS011;68166;55.090;37.460;2023-07-08T07:41:46;10.43;;;5.28;;
78818;SDS011;68166;55.090;37.460;2023-07-08T07:46:48;9.07;;;5.15;;
78818;SDS011;68166;55.090;37.460;2023-07-08T07:51:50;11.43;;;5.18;;
78818;SDS011;68166;55.090;37.460;2023-07-08T07:56:52;7.82;;;5.05;;
78818;SDS011;68166;55.090;37.460;2023-07-08T08:01:54;12.10;;;5.43;;
78818;SDS011;68166;55.090;37.460;2023-07-08T08:06:56;12.82;;;5.55;;
78818;SDS011;68166;55.090;37.460;2023-07-08T08:11:58;9.80;;;5.20;;
78818;SDS011;68166;55.090;37.460;2023-07-08T08:17:02;9.93;;;5.10;;
78818;SDS011;68166;55.090;37.460;2023-07-08T08:22:05;9.43;;;4.95;;
78818;SDS011;68166;55.090;37.460;2023-07-08T08:27:07;8.63;;;5.15;;
78818;SDS011;68166;55.090;37.460;2023-07-08T08:32:09;9.98;;;5.22;;
78818;SDS011;68166;55.090;37.460;2023-07-08T08:37:11;10.05;;;5.10;;
78818;SDS011;68166;55.090;37.460;2023-07-08T08:42:25;9.13;;;4.90;;
78818;SDS011;68166;55.090;37.460;2023-07-08T08:47:38;9.68;;;4.32;;
78818;SDS011;68166;55.090;37.460;2023-07-08T08:52:45;7.78;;;4.63;;
78818;SDS011;68166;55.090;37.460;2023-07-08T08:57:49;9.52;;;4.07;;
78818;SDS011;68166;55.090;37.460;2023-07-08T09:03:14;7.43;;;4.38;;
78818;SDS011;68166;55.090;37.460;2023-07-08T09:08:20;7.63;;;4.15;;
78818;SDS011;68166;55.090;37.460;2023-07-08T09:13:30;7.35;;;4.65;;
78818;SDS011;68166;55.090;37.460;2023-07-08T09:18:36;7.25;;;4.13;;
78818;SDS011;68166;55.090;37.460;2023-07-08T09:23:47;8.57;;;4.28;;
78818;SDS011;68166;55.090;37.460;2023-07-08T09:28:51;10.77;;;5.45;;
78818;SDS011;68166;55.090;37.460;2023-07-08T09:33:54;9.63;;;4.90;;
78818;SDS011;68166;55.090;37.460;2023-07-08T09:39:10;8.63;;;5.28;;
78818;SDS011;68166;55.090;37.460;2023-07-08T09:44:22;13.70;;;5.40;;
78818;SDS011;68166;55.090;37.460;2023-07-08T09:49:31;12.07;;;5.70;;
78818;SDS011;68166;55.090;37.460;2023-07-08T09:54:37;9.52;;;4.60;;
78818;SDS011;68166;55.090;37.460;2023-07-08T09:59:47;12.43;;;5.97;;
78818;SDS011;68166;55.090;37.460;2023-07-08T10:04:55;11.98;;;5.18;;
78818;SDS011;68166;55.090;37.460;2023-07-08T10:10:00;8.85;;;4.68;;
78818;SDS011;68166;55.090;37.460;2023-07-08T10:15:17;10.50;;;4.90;;
78818;SDS011;68166;55.090;37.460;2023-07-08T10:20:27;10.02;;;4.95;;
78818;SDS011;68166;55.090;37.460;2023-07-08T10:26:01;9.57;;;4.47;;
78818;SDS011;68166;55.090;37.460;2023-07-08T10:31:07;8.65;;;5.05;;
78818;SDS011;68166;55.090;37.460;2023-07-08T10:36:20;8.05;;;4.72;;
78818;SDS011;68166;55.090;37.460;2023-07-08T10:41:58;8.10;;;5.25;;
78818;SDS011;68166;55.090;37.460;2023-07-08T11:13:47;7.22;;;4.22;;
78818;SDS011;68166;55.090;37.460;2023-07-08T11:18:56;10.10;;;4.72;;
78818;SDS011;68166;55.090;37.460;2023-07-08T11:29:38;9.80;;;4.93;;
78818;SDS011;68166;55.090;37.460;2023-07-08T11:39:45;8.52;;;4.82;;
78818;SDS011;68166;55.090;37.460;2023-07-08T11:44:57;7.30;;;4.07;;
78818;SDS011;68166;55.090;37.460;2023-07-08T11:55:12;6.97;;;4.07;;
78818;SDS011;68166;55.090;37.460;2023-07-08T12:00:24;11.57;;;4.35;;
78818;SDS011;68166;55.090;37.460;2023-07-08T12:05:34;9.25;;;4.20;;
78818;SDS011;68166;55.090;37.460;2023-07-08T12:10:38;10.68;;;4.97;;
78818;SDS011;68166;55.090;37.460;2023-07-08T12:15:41;9.35;;;5.15;;
78818;SDS011;68166;55.090;37.460;2023-07-08T12:20:54;11.02;;;5.43;;
78818;SDS011;68166;55.090;37.460;2023-07-08T12:25:57;7.82;;;5.18;;
78818;SDS011;68166;55.090;37.460;2023-07-08T12:30:59;10.27;;;4.63;;
78818;SDS011;68166;55.090;37.460;2023-07-08T12:36:02;8.75;;;4.43;;
78818;SDS011;68166;55.090;37.460;2023-07-08T12:41:16;7.95;;;4.70;;
78818;SDS011;68166;55.090;37.460;2023-07-08T12:46:26;7.25;;;4.90;;
78818;SDS011;68166;55.090;37.460;2023-07-08T12:51:29;8.00;;;4.80;;
78818;SDS011;68166;55.090;37.460;2023-07-08T12:56:31;7.15;;;4.55;;
78818;SDS011;68166;55.090;37.460;2023-07-08T13:01:33;9.35;;;5.05;;
78818;SDS011;68166;55.090;37.460;2023-07-08T13:06:36;8.05;;;4.25;;
78818;SDS011;68166;55.090;37.460;2023-07-08T13:11:39;8.45;;;4.18;;
78818;SDS011;68166;55.090;37.460;2023-07-08T13:16:42;7.43;;;4.35;;
78818;SDS011;68166;55.090;37.460;2023-07-08T13:21:44;6.13;;;3.70;;
78818;SDS011;68166;55.090;37.460;2023-07-08T13:26:48;12.52;;;5.82;;
78818;SDS011;68166;55.090;37.460;2023-07-08T13:31:55;9.75;;;4.00;;
78818;SDS011;68166;55.090;37.460;2023-07-08T13:37:03;37.53;;;16.58;;
78818;SDS011;68166;55.090;37.460;2023-07-08T13:42:06;10.32;;;6.35;;
78818;SDS011;68166;55.090;37.460;2023-07-08T13:47:21;8.27;;;4.78;;
78818;SDS011;68166;55.090;37.460;2023-07-08T13:52:28;10.57;;;5.20;;
78818;SDS011;68166;55.090;37.460;2023-07-08T13:57:34;7.50;;;4.40;;
78818;SDS011;68166;55.090;37.460;2023-07-08T14:02:39;10.88;;;5.82;;
78818;SDS011;68166;55.090;37.460;2023-07-08T14:07:44;6.55;;;3.50;;
78818;SDS011;68166;55.090;37.460;2023-07-08T14:12:46;5.35;;;3.17;;
78818;SDS011;68166;55.090;37.460;2023-07-08T14:17:48;6.35;;;3.08;;
78818;SDS011;68166;55.090;37.460;2023-07-08T14:22:52;5.85;;;3.70;;
78818;SDS011;68166;55.090;37.460;2023-07-08T14:27:54;6.50;;;3.33;;
78818;SDS011;68166;55.090;37.460;2023-07-08T14:32:57;4.45;;;2.50;;
78818;SDS011;68166;55.090;37.460;2023-07-08T14:38:00;4.65;;;2.70;;
78818;SDS011;68166;55.090;37.460;2023-07-08T14:43:03;6.47;;;3.30;;
78818;SDS011;68166;55.090;37.460;2023-07-08T14:48:08;3.67;;;2.35;;
78818;SDS011;68166;55.090;37.460;2023-07-08T14:53:13;5.13;;;2.70;;
78818;SDS011;68166;55.090;37.460;2023-07-08T14:58:22;11.35;;;5.55;;
78818;SDS011;68166;55.090;37.460;2023-07-08T15:03:28;6.70;;;3.33;;
78818;SDS011;68166;55.090;37.460;2023-07-08T15:08:30;4.90;;;2.83;;
78818;SDS011;68166;55.090;37.460;2023-07-08T15:13:35;4.95;;;2.92;;
78818;SDS011;68166;55.090;37.460;2023-07-08T15:18:38;9.75;;;4.50;;
78818;SDS011;68166;55.090;37.460;2023-07-08T15:23:40;12.55;;;5.63;;
78818;SDS011;68166;55.090;37.460;2023-07-08T15:28:43;6.53;;;3.78;;
78818;SDS011;68166;55.090;37.460;2023-07-08T15:33:51;9.23;;;4.35;;
78818;SDS011;68166;55.090;37.460;2023-07-08T15:38:53;6.55;;;3.95;;
78818;SDS011;68166;55.090;37.460;2023-07-08T15:43:55;6.18;;;3.30;;
78818;SDS011;68166;55.090;37.460;2023-07-08T15:48:58;5.80;;;2.67;;
78818;SDS011;68166;55.090;37.460;2023-07-08T15:54:00;6.90;;;4.13;;
78818;SDS011;68166;55.090;37.460;2023-07-08T15:59:02;5.90;;;3.53;;
78818;SDS011;68166;55.090;37.460;2023-07-08T16:04:04;19.55;;;16.80;;
78818;SDS011;68166;55.090;37.460;2023-07-08T16:09:07;7.55;;;3.28;;
78818;SDS011;68166;55.090;37.460;2023-07-08T16:14:15;4.78;;;2.60;;
78818;SDS011;68166;55.090;37.460;2023-07-08T16:19:18;5.32;;;3.00;;
78818;SDS011;68166;55.090;37.460;2023-07-08T16:24:20;5.82;;;4.47;;
78818;SDS011;68166;55.090;37.460;2023-07-08T16:29:22;5.22;;;3.25;;
78818;SDS011;68166;55.090;37.460;2023-07-08T16:34:26;10.85;;;3.20;;
78818;SDS011;68166;55.090;37.460;2023-07-08T16:39:28;6.75;;;2.95;;
78818;SDS011;68166;55.090;37.460;2023-07-08T16:44:30;6.57;;;4.07;;
78818;SDS011;68166;55.090;37.460;2023-07-08T16:49:32;5.75;;;4.15;;
78818;SDS011;68166;55.090;37.460;2023-07-08T16:54:36;9.60;;;4.85;;
78818;SDS011;68166;55.090;37.460;2023-07-08T16:59:38;7.32;;;4.28;;
78818;SDS011;68166;55.090;37.460;2023-07-08T17:04:41;9.68;;;5.00;;
78818;SDS011;68166;55.090;37.460;2023-07-08T17:09:44;5.80;;;3.42;;
78818;SDS011;68166;55.090;37.460;2023-07-08T17:14:46;7.75;;;3.45;;
78818;SDS011;68166;55.090;37.460;2023-07-08T17:19:48;6.88;;;3.65;;
78818;SDS011;68166;55.090;37.460;2023-07-08T17:24:50;8.00;;;4.20;;
78818;SDS011;68166;55.090;37.460;2023-07-08T17:29:52;7.30;;;3.70;;
78818;SDS011;68166;55.090;37.460;2023-07-08T17:34:54;6.53;;;4.07;;
78818;SDS011;68166;55.090;37.460;2023-07-08T17:39:56;11.55;;;5.78;;
78818;SDS011;68166;55.090;37.460;2023-07-08T17:44:58;16.50;;;8.55;;
78818;SDS011;68166;55.090;37.460;2023-07-08T17:50:00;15.35;;;8.60;;
78818;SDS011;68166;55.090;37.460;2023-07-08T17:55:02;12.52;;;7.72;;
78818;SDS011;68166;55.090;37.460;2023-07-08T18:00:06;12.13;;;6.22;;
78818;SDS011;68166;55.090;37.460;2023-07-08T18:05:26;69.68;;;21.40;;
78818;SDS011;68166;55.090;37.460;2023-07-08T18:10:28;31.15;;;11.70;;
78818;SDS011;68166;55.090;37.460;2023-07-08T18:15:34;38.50;;;12.65;;
78818;SDS011;68166;55.090;37.460;2023-07-08T18:20:45;80.03;;;23.85;;
78818;SDS011;68166;55.090;37.460;2023-07-08T18:25:51;44.65;;;14.73;;
78818;SDS011;68166;55.090;37.460;2023-07-08T18:30:53;47.03;;;14.60;;
78818;SDS011;68166;55.090;37.460;2023-07-08T18:35:55;48.97;;;13.98;;
78818;SDS011;68166;55.090;37.460;2023-07-08T18:40:57;15.80;;;5.80;;
78818;SDS011;68166;55.090;37.460;2023-07-08T18:45:59;16.73;;;6.20;;
78818;SDS011;68166;55.090;37.460;2023-07-08T18:51:04;17.42;;;6.40;;
78818;SDS011;68166;55.090;37.460;2023-07-08T19:01:17;7.13;;;4.05;;
78818;SDS011;68166;55.090;37.460;2023-07-08T19:06:20;11.50;;;5.82;;
78818;SDS011;68166;55.090;37.460;2023-07-08T19:11:23;13.57;;;7.40;;
78818;SDS011;68166;55.090;37.460;2023-07-08T19:16:27;11.52;;;5.65;;
78818;SDS011;68166;55.090;37.460;2023-07-08T19:21:30;13.02;;;4.65;;
78818;SDS011;68166;55.090;37.460;2023-07-08T19:26:33;16.20;;;6.50;;
78818;SDS011;68166;55.090;37.460;2023-07-08T19:31:35;13.82;;;6.93;;
78818;SDS011;68166;55.090;37.460;2023-07-08T19:36:37;16.80;;;7.93;;
78818;SDS011;68166;55.090;37.460;2023-07-08T19:41:40;12.18;;;6.13;;
78818;SDS011;68166;55.090;37.460;2023-07-08T19:46:42;13.43;;;6.60;;
78818;SDS011;68166;55.090;37.460;2023-07-08T19:51:44;84.50;;;32.53;;
78818;SDS011;68166;55.090;37.460;2023-07-08T19:56:46;70.05;;;26.27;;
78818;SDS011;68166;55.090;37.460;2023-07-08T20:01:48;27.75;;;11.88;;
78818;SDS011;68166;55.090;37.460;2023-07-08T20:06:50;43.03;;;15.10;;
78818;SDS011;68166;55.090;37.460;2023-07-08T20:11:52;45.90;;;16.73;;
78818;SDS011;68166;55.090;37.460;2023-07-08T20:16:54;21.35;;;10.73;;
78818;SDS011;68166;55.090;37.460;2023-07-08T20:21:56;24.98;;;11.57;;
78818;SDS011;68166;55.090;37.460;2023-07-08T20:26:58;16.85;;;7.60;;
78818;SDS011;68166;55.090;37.460;2023-07-08T20:32:00;30.52;;;12.82;;
78818;SDS011;68166;55.090;37.460;2023-07-08T20:37:02;43.60;;;18.92;;
78818;SDS011;68166;55.090;37.460;2023-07-08T20:42:04;37.60;;;18.55;;
78818;SDS011;68166;55.090;37.460;2023-07-08T20:47:08;39.33;;;17.83;;
78818;SDS011;68166;55.090;37.460;2023-07-08T20:52:15;48.63;;;19.48;;
78818;SDS011;68166;55.090;37.460;2023-07-08T20:57:18;40.70;;;17.25;;
78818;SDS011;68166;55.090;37.460;2023-07-08T21:02:24;81.45;;;28.35;;
78818;SDS011;68166;55.090;37.460;2023-07-08T21:07:27;76.07;;;26.98;;
78818;SDS011;68166;55.090;37.460;2023-07-08T21:12:29;107.10;;;37.22;;
78818;SDS011;68166;55.090;37.460;2023-07-08T21:17:31;81.57;;;28.55;;
78818;SDS011;68166;55.090;37.460;2023-07-08T21:22:36;67.32;;;26.90;;
78818;SDS011;68166;55.090;37.460;2023-07-08T21:27:38;72.43;;;26.25;;
78818;SDS011;68166;55.090;37.460;2023-07-08T21:32:40;68.13;;;24.08;;
78818;SDS011;68166;55.090;37.460;2023-07-08T21:37:47;52.88;;;16.48;;
78818;SDS011;68166;55.090;37.460;2023-07-08T21:42:51;53.03;;;17.70;;
78818;SDS011;68166;55.090;37.460;2023-07-08T21:47:53;26.08;;;10.90;;
78818;SDS011;68166;55.090;37.460;2023-07-08T21:52:57;14.35;;;7.40;;
78818;SDS011;68166;55.090;37.460;2023-07-08T21:58:01;28.65;;;10.63;;
78818;SDS011;68166;55.090;37.460;2023-07-08T22:03:03;25.58;;;9.85;;
78818;SDS011;68166;55.090;37.460;2023-07-08T22:08:08;23.58;;;11.63;;
78818;SDS011;68166;55.090;37.460;2023-07-08T22:13:21;31.02;;;13.07;;
78818;SDS011;68166;55.090;37.460;2023-07-08T22:18:29;25.48;;;12.02;;
78818;SDS011;68166;55.090;37.460;2023-07-08T22:23:31;28.17;;;11.60;;
78818;SDS011;68166;55.090;37.460;2023-07-08T22:28:33;26.50;;;12.52;;
78818;SDS011;68166;55.090;37.460;2023-07-08T22:33:35;26.85;;;12.27;;
78818;SDS011;68166;55.090;37.460;2023-07-08T22:38:37;26.83;;;12.38;;
78818;SDS011;68166;55.090;37.460;2023-07-08T22:43:38;24.52;;;13.65;;
78818;SDS011;68166;55.090;37.460;2023-07-08T22:48:41;20.95;;;11.88;;
78818;SDS011;68166;55.090;37.460;2023-07-08T22:53:43;14.80;;;8.90;;
78818;SDS011;68166;55.090;37.460;2023-07-08T22:58:45;16.88;;;9.95;;
78818;SDS011;68166;55.090;37.460;2023-07-08T23:03:47;16.88;;;7.85;;
78818;SDS011;68166;55.090;37.460;2023-07-08T23:08:49;15.35;;;7.95;;
78818;SDS011;68166;55.090;37.460;2023-07-08T23:13:51;12.07;;;7.22;;
78818;SDS011;68166;55.090;37.460;2023-07-08T23:18:53;28.50;;;9.60;;
78818;SDS011;68166;55.090;37.460;2023-07-08T23:23:55;13.32;;;8.13;;
78818;SDS011;68166;55.090;37.460;2023-07-08T23:28:58;16.48;;;7.00;;
78818;SDS011;68166;55.090;37.460;2023-07-08T23:34:01;12.65;;;7.07;;
78818;SDS011;68166;55.090;37.460;2023-07-08T23:39:10;10.65;;;6.30;;
78818;SDS011;68166;55.090;37.460;2023-07-08T23:44:13;11.98;;;5.85;;
78818;SDS011;68166;55.090;37.460;2023-07-08T23:54:29;11.15;;;4.97;;
78818;SDS011;68166;55.090;37.460;2023-07-08T23:59:34;9.23;;;5.25;;
